sensor_id;sensor_type;location;lat;lon;timestamp;pressure;altitude;pressure_sealevel;temperature;humidity
9077;BME280;4574;51.072;17.174;2023-03-31T00:01:23;99325.44;;;10.39;100.00
9077;BME280;4574;51.072;17.174;2023-03-31T00:03:56;99330.41;;;10.42;100.00
9077;BME280;4574;51.072;17.174;2023-03-31T00:06:33;99318.03;;;10.42;100.00
9077;BME280;4574;51.072;17.174;2023-03-31T00:09:05;99319.69;;;10.43;100.00
9077;BME280;4574;51.072;17.174;2023-03-31T00:11:37;99321.00;;;10.47;100.00
9077;BME280;4574;51.072;17.174;2023-03-31T00:14:07;99305.13;;;10.47;100.00
9077;BME280;4574;51.072;17.174;2023-03-31T00:16:37;99311.22;;;10.48;100.00
9077;BME280;4574;51.072;17.174;2023-03-31T00:19:08;99317.16;;;10.50;100.00
9077;BME280;4574;51.072;17.174;2023-03-31T00:21:44;99312.06;;;10.48;100.00
9077;BME280;4574;51.072;17.174;2023-03-31T00:24:14;99308.75;;;10.46;100.00
9077;BME280;4574;51.072;17.174;2023-03-31T00:26:43;99318.34;;;10.47;100.00
9077;BME280;4574;51.072;17.174;2023-03-31T00:29:12;99298.50;;;10.43;100.00
9077;BME280;4574;51.072;17.174;2023-03-31T00:31:41;99311.75;;;10.43;100.00
9077;BME280;4574;51.072;17.174;2023-03-31T00:34:11;99288.94;;;10.34;100.00
9077;BME280;4574;51.072;17.174;2023-03-31T00:36:40;99305.28;;;10.38;100.00
9077;BME280;4574;51.072;17.174;2023-03-31T00:39:14;99313.56;;;10.35;100.00
9077;BME280;4574;51.072;17.174;2023-03-31T00:41:44;99303.50;;;10.30;100.00
9077;BME280;4574;51.072;17.174;2023-03-31T00:44:14;99304.47;;;10.29;100.00
9077;BME280;4574;51.072;17.174;2023-03-31T00:46:52;99300.53;;;10.25;100.00
9077;BME280;4574;51.072;17.174;2023-03-31T00:49:31;99291.94;;;10.23;100.00
9077;BME280;4574;51.072;17.174;2023-03-31T00:52:03;99281.97;;;10.17;100.00
9077;BME280;4574;51.072;17.174;2023-03-31T00:54:35;99263.66;;;10.08;100.00
9077;BME280;4574;51.072;17.174;2023-03-31T00:57:06;99288.25;;;10.16;100.00
9077;BME280;4574;51.072;17.174;2023-03-31T00:59:38;99287.59;;;10.14;100.00
9077;BME280;4574;51.072;17.174;2023-03-31T01:02:08;99285.97;;;10.13;100.00
9077;BME280;4574;51.072;17.174;2023-03-31T01:04:44;99287.59;;;10.14;100.00
9077;BME280;4574;51.072;17.174;2023-03-31T01:07:21;99280.66;;;10.13;100.00
9077;BME280;4574;51.072;17.174;2023-03-31T01:09:52;99284.16;;;10.14;100.00
9077;BME280;4574;51.072;17.174;2023-03-31T01:12:26;99272.06;;;10.11;100.00
9077;BME280;4574;51.072;17.174;2023-03-31T01:14:54;99278.22;;;10.12;100.00
9077;BME280;4574;51.072;17.174;2023-03-31T01:17:23;99272.06;;;10.11;100.00
9077;BME280;4574;51.072;17.174;2023-03-31T01:20:02;99271.09;;;10.12;100.00
9077;BME280;4574;51.072;17.174;2023-03-31T01:26:06;99268.78;;;10.09;100.00
9077;BME280;4574;51.072;17.174;2023-03-31T01:28:43;99264.47;;;10.08;100.00
9077;BME280;4574;51.072;17.174;2023-03-31T01:31:25;99267.13;;;10.08;100.00
9077;BME280;4574;51.072;17.174;2023-03-31T01:43:22;99256.22;;;10.11;100.00
9077;BME280;4574;51.072;17.174;2023-03-31T01:45:56;99254.22;;;10.13;100.00
9077;BME280;4574;51.072;17.174;2023-03-31T01:48:36;99247.16;;;10.06;100.00
9077;BME280;4574;51.072;17.174;2023-03-31T01:51:13;99255.06;;;10.14;100.00
9077;BME280;4574;51.072;17.174;2023-03-31T01:53:49;99254.88;;;10.15;100.00
9077;BME280;4574;51.072;17.174;2023-03-31T01:56:21;99250.59;;;10.14;100.00
9077;BME280;4574;51.072;17.174;2023-03-31T01:58:57;99246.28;;;10.13;100.00
9077;BME280;4574;51.072;17.174;2023-03-31T02:01:33;99245.63;;;10.11;100.00
9077;BME280;4574;51.072;17.174;2023-03-31T02:04:08;99246.47;;;10.12;100.00
9077;BME280;4574;51.072;17.174;2023-03-31T02:06:46;99239.03;;;10.07;100.00
9077;BME280;4574;51.072;17.174;2023-03-31T02:09:22;99249.13;;;10.12;100.00
9077;BME280;4574;51.072;17.174;2023-03-31T02:11:52;99224.47;;;9.95;100.00
9077;BME280;4574;51.072;17.174;2023-03-31T02:14:27;99241.84;;;10.06;100.00
9077;BME280;4574;51.072;17.174;2023-03-31T02:16:58;99240.22;;;10.05;100.00
9077;BME280;4574;51.072;17.174;2023-03-31T02:19:32;99247.78;;;10.00;100.00
9077;BME280;4574;51.072;17.174;2023-03-31T02:22:02;99246.47;;;9.96;100.00
9077;BME280;4574;51.072;17.174;2023-03-31T02:24:35;99250.91;;;9.95;100.00
9077;BME280;4574;51.072;17.174;2023-03-31T02:27:09;99240.66;;;9.92;100.00
9077;BME280;4574;51.072;17.174;2023-03-31T02:29:41;99231.75;;;9.85;100.00
9077;BME280;4574;51.072;17.174;2023-03-31T02:32:14;99234.41;;;9.85;100.00
9077;BME280;4574;51.072;17.174;2023-03-31T02:34:47;99242.31;;;9.85;100.00
9077;BME280;4574;51.072;17.174;2023-03-31T02:37:16;99224.16;;;9.74;100.00
9077;BME280;4574;51.072;17.174;2023-03-31T02:39:47;99232.09;;;9.74;100.00
9077;BME280;4574;51.072;17.174;2023-03-31T02:42:18;99229.44;;;9.74;100.00
9077;BME280;4574;51.072;17.174;2023-03-31T02:44:48;99210.28;;;9.64;100.00
9077;BME280;4574;51.072;17.174;2023-03-31T02:47:21;99210.78;;;9.60;100.00
9077;BME280;4574;51.072;17.174;2023-03-31T02:49:51;99206.00;;;9.55;100.00
9077;BME280;4574;51.072;17.174;2023-03-31T02:52:47;99214.91;;;9.54;100.00
9077;BME280;4574;51.072;17.174;2023-03-31T02:55:26;99220.03;;;9.48;100.00
9077;BME280;4574;51.072;17.174;2023-03-31T02:58:35;99199.06;;;9.38;100.00
9077;BME280;4574;51.072;17.174;2023-03-31T03:04:10;99202.81;;;9.28;100.00
9077;BME280;4574;51.072;17.174;2023-03-31T03:06:52;99204.81;;;9.26;100.00
9077;BME280;4574;51.072;17.174;2023-03-31T03:09:31;99204.31;;;9.23;100.00
9077;BME280;4574;51.072;17.174;2023-03-31T03:12:10;99195.22;;;9.17;100.00
9077;BME280;4574;51.072;17.174;2023-03-31T03:14:45;99194.06;;;9.12;100.00
9077;BME280;4574;51.072;17.174;2023-03-31T03:17:21;99200.00;;;9.14;100.00
9077;BME280;4574;51.072;17.174;2023-03-31T03:19:53;99192.25;;;9.12;100.00
9077;BME280;4574;51.072;17.174;2023-03-31T03:22:22;99198.50;;;9.11;100.00
9077;BME280;4574;51.072;17.174;2023-03-31T03:24:51;99195.38;;;9.08;100.00
9077;BME280;4574;51.072;17.174;2023-03-31T03:27:20;99199.34;;;9.04;100.00
9077;BME280;4574;51.072;17.174;2023-03-31T03:29:50;99199.66;;;9.01;100.00
9077;BME280;4574;51.072;17.174;2023-03-31T03:32:21;99192.06;;;8.98;100.00
9077;BME280;4574;51.072;17.174;2023-03-31T03:34:49;99189.09;;;8.93;100.00
9077;BME280;4574;51.072;17.174;2023-03-31T03:37:18;99180.97;;;8.94;100.00
9077;BME280;4574;51.072;17.174;2023-03-31T03:39:47;99183.13;;;8.91;100.00
9077;BME280;4574;51.072;17.174;2023-03-31T03:42:15;99167.44;;;8.81;100.00
9077;BME280;4574;51.072;17.174;2023-03-31T03:44:44;99176.84;;;8.84;100.00
9077;BME280;4574;51.072;17.174;2023-03-31T03:47:13;99184.44;;;8.87;100.00
9077;BME280;4574;51.072;17.174;2023-03-31T03:49:44;99175.69;;;8.86;100.00
9077;BME280;4574;51.072;17.174;2023-03-31T03:52:14;99176.69;;;8.85;100.00
9077;BME280;4574;51.072;17.174;2023-03-31T03:54:43;99172.25;;;8.86;100.00
9077;BME280;4574;51.072;17.174;2023-03-31T03:57:11;99176.53;;;8.87;100.00
9077;BME280;4574;51.072;17.174;2023-03-31T03:59:40;99170.41;;;8.86;100.00
9077;BME280;4574;51.072;17.174;2023-03-31T04:02:09;99171.25;;;8.87;100.00
9077;BME280;4574;51.072;17.174;2023-03-31T04:04:38;99176.84;;;8.84;100.00
9077;BME280;4574;51.072;17.174;2023-03-31T04:07:08;99175.19;;;8.83;100.00
9077;BME280;4574;51.072;17.174;2023-03-31T04:09:37;99175.88;;;8.85;100.00
9077;BME280;4574;51.072;17.174;2023-03-31T04:12:05;99173.91;;;8.87;100.00
9077;BME280;4574;51.072;17.174;2023-03-31T04:14:34;99164.31;;;8.86;100.00
9077;BME280;4574;51.072;17.174;2023-03-31T04:17:02;99157.41;;;8.85;100.00
9077;BME280;4574;51.072;17.174;2023-03-31T04:19:31;99162.69;;;8.85;100.00
9077;BME280;4574;51.072;17.174;2023-03-31T04:22:00;99162.69;;;8.85;100.00
9077;BME280;4574;51.072;17.174;2023-03-31T04:24:32;99154.91;;;8.83;100.00
9077;BME280;4574;51.072;17.174;2023-03-31T04:27:04;99153.09;;;8.84;100.00
9077;BME280;4574;51.072;17.174;2023-03-31T04:29:34;99154.75;;;8.85;100.00
9077;BME280;4574;51.072;17.174;2023-03-31T04:32:03;99151.44;;;8.83;100.00
9077;BME280;4574;51.072;17.174;2023-03-31T04:34:32;99147.16;;;8.82;100.00
9077;BME280;4574;51.072;17.174;2023-03-31T04:37:03;99139.72;;;8.77;100.00
9077;BME280;4574;51.072;17.174;2023-03-31T04:39:33;99137.59;;;8.81;100.00
9077;BME280;4574;51.072;17.174;2023-03-31T04:42:02;99148.28;;;8.79;100.00
9077;BME280;4574;51.072;17.174;2023-03-31T04:44:31;99139.56;;;8.79;100.00
9077;BME280;4574;51.072;17.174;2023-03-31T04:47:02;99131.78;;;8.69;100.00
9077;BME280;4574;51.072;17.174;2023-03-31T04:49:35;99137.25;;;8.76;100.00
9077;BME280;4574;51.072;17.174;2023-03-31T04:52:04;99132.44;;;8.71;100.00
9077;BME280;4574;51.072;17.174;2023-03-31T04:54:34;99125.53;;;8.70;100.00
9077;BME280;4574;51.072;17.174;2023-03-31T04:57:03;99111.84;;;8.67;100.00
9077;BME280;4574;51.072;17.174;2023-03-31T04:59:32;99116.28;;;8.66;100.00
9077;BME280;4574;51.072;17.174;2023-03-31T05:02:00;99105.91;;;8.73;100.00
9077;BME280;4574;51.072;17.174;2023-03-31T05:04:29;99106.59;;;8.75;100.00
9077;BME280;4574;51.072;17.174;2023-03-31T05:06:58;99105.59;;;8.76;100.00
9077;BME280;4574;51.072;17.174;2023-03-31T05:09:28;99109.53;;;8.72;100.00
9077;BME280;4574;51.072;17.174;2023-03-31T05:11:58;99093.03;;;8.62;100.00
9077;BME280;4574;51.072;17.174;2023-03-31T05:14:26;99115.50;;;8.74;100.00
9077;BME280;4574;51.072;17.174;2023-03-31T05:16:55;99113.16;;;8.71;100.00
9077;BME280;4574;51.072;17.174;2023-03-31T05:19:25;99116.81;;;8.70;100.00
9077;BME280;4574;51.072;17.174;2023-03-31T05:21:54;99108.88;;;8.62;100.00
9077;BME280;4574;51.072;17.174;2023-03-31T05:24:23;99126.03;;;8.74;100.00
9077;BME280;4574;51.072;17.174;2023-03-31T05:26:51;99121.56;;;8.74;100.00
9077;BME280;4574;51.072;17.174;2023-03-31T05:29:22;99115.81;;;8.79;100.00
9077;BME280;4574;51.072;17.174;2023-03-31T05:31:51;99124.09;;;8.84;100.00
9077;BME280;4574;51.072;17.174;2023-03-31T05:34:21;99115.84;;;8.87;100.00
9077;BME280;4574;51.072;17.174;2023-03-31T05:36:50;99116.19;;;8.92;100.00
9077;BME280;4574;51.072;17.174;2023-03-31T05:39:19;99109.72;;;8.94;100.00
9077;BME280;4574;51.072;17.174;2023-03-31T05:41:48;99100.00;;;8.95;100.00
9077;BME280;4574;51.072;17.174;2023-03-31T05:44:17;99103.78;;;9.00;100.00
9077;BME280;4574;51.072;17.174;2023-03-31T05:46:48;99108.09;;;9.09;100.00
9077;BME280;4574;51.072;17.174;2023-03-31T05:49:17;99092.25;;;9.09;100.00
9077;BME280;4574;51.072;17.174;2023-03-31T05:51:45;99099.69;;;9.22;100.00
9077;BME280;4574;51.072;17.174;2023-03-31T05:54:14;99104.47;;;9.26;100.00
9077;BME280;4574;51.072;17.174;2023-03-31T05:56:43;99104.97;;;9.37;100.00
9077;BME280;4574;51.072;17.174;2023-03-31T05:59:12;99104.16;;;9.45;100.00
9077;BME280;4574;51.072;17.174;2023-03-31T06:01:41;99101.66;;;9.51;100.00
9077;BME280;4574;51.072;17.174;2023-03-31T06:04:11;99100.84;;;9.59;100.00
9077;BME280;4574;51.072;17.174;2023-03-31T06:06:40;99093.69;;;9.67;100.00
9077;BME280;4574;51.072;17.174;2023-03-31T06:09:10;99109.06;;;9.72;100.00
9077;BME280;4574;51.072;17.174;2023-03-31T06:11:40;99097.31;;;9.74;100.00
9077;BME280;4574;51.072;17.174;2023-03-31T06:14:08;99087.09;;;9.71;100.00
9077;BME280;4574;51.072;17.174;2023-03-31T06:16:37;99094.84;;;9.81;100.00
9077;BME280;4574;51.072;17.174;2023-03-31T06:19:06;99088.38;;;9.83;100.00
9077;BME280;4574;51.072;17.174;2023-03-31T06:21:36;99093.00;;;9.81;100.00
9077;BME280;4574;51.072;17.174;2023-03-31T06:24:05;99088.53;;;9.90;100.00
9077;BME280;4574;51.072;17.174;2023-03-31T06:26:35;99091.66;;;10.01;100.00
9077;BME280;4574;51.072;17.174;2023-03-31T06:29:04;99080.38;;;10.07;100.00
9077;BME280;4574;51.072;17.174;2023-03-31T06:31:33;99076.72;;;10.16;100.00
9077;BME280;4574;51.072;17.174;2023-03-31T06:34:02;99072.22;;;10.25;100.00
9077;BME280;4574;51.072;17.174;2023-03-31T06:36:30;99082.91;;;10.39;100.00
9077;BME280;4574;51.072;17.174;2023-03-31T06:39:01;99077.88;;;10.52;100.00
9077;BME280;4574;51.072;17.174;2023-03-31T06:41:29;99075.34;;;10.59;100.00
9077;BME280;4574;51.072;17.174;2023-03-31T06:43:58;99078.31;;;10.63;100.00
9077;BME280;4574;51.072;17.174;2023-03-31T06:46:26;99071.19;;;10.64;100.00
9077;BME280;4574;51.072;17.174;2023-03-31T06:48:55;99067.22;;;10.68;100.00
9077;BME280;4574;51.072;17.174;2023-03-31T06:51:24;99065.84;;;10.72;100.00
9077;BME280;4574;51.072;17.174;2023-03-31T06:53:58;99076.09;;;10.75;100.00
9077;BME280;4574;51.072;17.174;2023-03-31T06:56:28;99074.75;;;10.79;100.00
9077;BME280;4574;51.072;17.174;2023-03-31T06:58:56;99065.63;;;10.81;100.00
9077;BME280;4574;51.072;17.174;2023-03-31T07:01:25;99062.44;;;10.86;100.00
9077;BME280;4574;51.072;17.174;2023-03-31T07:03:55;99067.03;;;10.92;100.00
9077;BME280;4574;51.072;17.174;2023-03-31T07:06:24;99059.75;;;10.94;100.00
9077;BME280;4574;51.072;17.174;2023-03-31T07:08:53;99066.91;;;11.08;100.00
9077;BME280;4574;51.072;17.174;2023-03-31T07:11:21;99072.78;;;11.18;100.00
9077;BME280;4574;51.072;17.174;2023-03-31T07:13:51;99075.72;;;11.23;100.00
9077;BME280;4574;51.072;17.174;2023-03-31T07:16:20;99080.31;;;11.29;100.00
9077;BME280;4574;51.072;17.174;2023-03-31T07:18:49;99065.53;;;11.34;100.00
9077;BME280;4574;51.072;17.174;2023-03-31T07:21:20;99055.22;;;11.39;100.00
9077;BME280;4574;51.072;17.174;2023-03-31T07:23:49;99050.00;;;11.46;100.00
9077;BME280;4574;51.072;17.174;2023-03-31T07:26:17;99048.19;;;11.46;100.00
9077;BME280;4574;51.072;17.174;2023-03-31T07:28:46;99048.59;;;11.58;100.00
9077;BME280;4574;51.072;17.174;2023-03-31T07:31:16;99046.06;;;11.64;100.00
9077;BME280;4574;51.072;17.174;2023-03-31T07:33:45;99042.84;;;11.69;100.00
9077;BME280;4574;51.072;17.174;2023-03-31T07:36:14;99032.72;;;11.72;100.00
9077;BME280;4574;51.072;17.174;2023-03-31T07:38:44;99029.97;;;11.80;100.00
9077;BME280;4574;51.072;17.174;2023-03-31T07:41:16;99023.94;;;11.86;100.00
9077;BME280;4574;51.072;17.174;2023-03-31T07:43:46;99020.53;;;11.92;100.00
9077;BME280;4574;51.072;17.174;2023-03-31T07:46:18;99025.59;;;12.02;100.00
9077;BME280;4574;51.072;17.174;2023-03-31T07:48:47;99021.19;;;12.08;100.00
9077;BME280;4574;51.072;17.174;2023-03-31T07:51:18;99015.78;;;12.16;100.00
9077;BME280;4574;51.072;17.174;2023-03-31T07:53:47;99005.81;;;12.18;100.00
9077;BME280;4574;51.072;17.174;2023-03-31T07:56:19;99006.06;;;12.23;100.00
9077;BME280;4574;51.072;17.174;2023-03-31T07:58:48;98997.16;;;12.31;100.00
9077;BME280;4574;51.072;17.174;2023-03-31T08:01:24;98992.56;;;12.39;100.00
9077;BME280;4574;51.072;17.174;2023-03-31T08:03:55;98977.44;;;12.40;100.00
9077;BME280;4574;51.072;17.174;2023-03-31T08:06:25;98986.19;;;12.55;100.00
9077;BME280;4574;51.072;17.174;2023-03-31T08:08:55;98979.94;;;12.62;100.00
9077;BME280;4574;51.072;17.174;2023-03-31T08:11:24;98981.59;;;12.63;100.00
9077;BME280;4574;51.072;17.174;2023-03-31T08:13:53;98989.28;;;12.79;100.00
9077;BME280;4574;51.072;17.174;2023-03-31T08:16:21;98976.47;;;13.04;100.00
9077;BME280;4574;51.072;17.174;2023-03-31T08:18:51;98978.25;;;13.24;100.00
9077;BME280;4574;51.072;17.174;2023-03-31T08:21:20;98984.66;;;13.30;100.00
9077;BME280;4574;51.072;17.174;2023-03-31T08:23:52;98989.44;;;13.40;100.00
9077;BME280;4574;51.072;17.174;2023-03-31T08:26:21;98991.09;;;13.48;100.00
9077;BME280;4574;51.072;17.174;2023-03-31T08:28:51;98986.63;;;13.55;100.00
9077;BME280;4574;51.072;17.174;2023-03-31T08:31:20;98975.03;;;13.62;100.00
9077;BME280;4574;51.072;17.174;2023-03-31T08:33:54;98969.78;;;13.69;100.00
9077;BME280;4574;51.072;17.174;2023-03-31T08:36:24;98963.69;;;13.81;100.00
9077;BME280;4574;51.072;17.174;2023-03-31T08:38:53;98952.91;;;13.96;100.00
9077;BME280;4574;51.072;17.174;2023-03-31T08:41:29;98951.72;;;14.05;100.00
9077;BME280;4574;51.072;17.174;2023-03-31T08:44:02;98943.13;;;14.09;100.00
9077;BME280;4574;51.072;17.174;2023-03-31T08:46:33;98944.59;;;14.12;100.00
9077;BME280;4574;51.072;17.174;2023-03-31T08:49:04;98937.88;;;14.16;100.00
9077;BME280;4574;51.072;17.174;2023-03-31T08:51:38;98931.34;;;14.25;100.00
9077;BME280;4574;51.072;17.174;2023-03-31T08:54:13;98916.81;;;14.40;100.00
9077;BME280;4574;51.072;17.174;2023-03-31T08:56:46;98926.50;;;14.61;100.00
9077;BME280;4574;51.072;17.174;2023-03-31T08:59:21;98931.00;;;14.79;100.00
9077;BME280;4574;51.072;17.174;2023-03-31T09:01:58;98925.09;;;14.84;100.00
9077;BME280;4574;51.072;17.174;2023-03-31T09:04:43;98923.03;;;14.92;100.00
9077;BME280;4574;51.072;17.174;2023-03-31T09:07:22;98922.00;;;15.00;100.00
9077;BME280;4574;51.072;17.174;2023-03-31T09:10:00;98918.28;;;15.14;100.00
9077;BME280;4574;51.072;17.174;2023-03-31T09:12:38;98904.75;;;15.28;100.00
9077;BME280;4574;51.072;17.174;2023-03-31T09:15:15;98894.47;;;15.25;100.00
9077;BME280;4574;51.072;17.174;2023-03-31T09:17:50;98901.06;;;15.29;100.00
9077;BME280;4574;51.072;17.174;2023-03-31T09:20:27;98901.06;;;15.36;100.00
9077;BME280;4574;51.072;17.174;2023-03-31T09:23:01;98894.91;;;15.42;100.00
9077;BME280;4574;51.072;17.174;2023-03-31T09:25:35;98887.50;;;15.50;100.00
9077;BME280;4574;51.072;17.174;2023-03-31T09:28:13;98887.66;;;15.62;100.00
9077;BME280;4574;51.072;17.174;2023-03-31T09:30:47;98882.78;;;15.52;98.93
9077;BME280;4574;51.072;17.174;2023-03-31T09:33:18;98884.00;;;15.56;98.45
9077;BME280;4574;51.072;17.174;2023-03-31T09:35:52;98889.75;;;15.53;99.23
9077;BME280;4574;51.072;17.174;2023-03-31T09:38:20;98873.56;;;15.48;99.89
9077;BME280;4574;51.072;17.174;2023-03-31T09:40:49;98888.75;;;15.41;99.08
9077;BME280;4574;51.072;17.174;2023-03-31T09:43:21;98878.28;;;15.46;99.28
9077;BME280;4574;51.072;17.174;2023-03-31T09:45:51;98879.72;;;15.42;98.49
9077;BME280;4574;51.072;17.174;2023-03-31T09:48:41;98874.81;;;15.39;99.10
9077;BME280;4574;51.072;17.174;2023-03-31T09:51:23;98866.81;;;15.39;98.30
9077;BME280;4574;51.072;17.174;2023-03-31T09:53:57;98873.59;;;15.35;98.00
9077;BME280;4574;51.072;17.174;2023-03-31T09:56:44;98871.53;;;15.31;98.65
9077;BME280;4574;51.072;17.174;2023-03-31T09:59:17;98865.56;;;15.22;96.82
9077;BME280;4574;51.072;17.174;2023-03-31T10:01:49;98860.66;;;15.19;98.33
9077;BME280;4574;51.072;17.174;2023-03-31T10:04:22;98855.13;;;15.14;97.49
9077;BME280;4574;51.072;17.174;2023-03-31T10:06:54;98841.00;;;15.07;98.16
9077;BME280;4574;51.072;17.174;2023-03-31T10:09:25;98833.03;;;15.01;97.34
9077;BME280;4574;51.072;17.174;2023-03-31T10:11:56;98839.97;;;15.08;97.81
9077;BME280;4574;51.072;17.174;2023-03-31T10:14:27;98837.94;;;15.04;98.47
9077;BME280;4574;51.072;17.174;2023-03-31T10:17:03;98834.25;;;15.05;98.50
9077;BME280;4574;51.072;17.174;2023-03-31T10:19:35;98835.66;;;15.07;98.78
9077;BME280;4574;51.072;17.174;2023-03-31T10:22:14;98834.44;;;15.10;99.16
9077;BME280;4574;51.072;17.174;2023-03-31T10:24:44;98823.56;;;15.11;98.49
9077;BME280;4574;51.072;17.174;2023-03-31T10:27:20;98822.53;;;15.12;97.58
9077;BME280;4574;51.072;17.174;2023-03-31T10:29:51;98820.91;;;15.11;97.67
9077;BME280;4574;51.072;17.174;2023-03-31T10:32:23;98821.13;;;15.10;97.22
9077;BME280;4574;51.072;17.174;2023-03-31T10:34:56;98811.28;;;15.04;97.79
9077;BME280;4574;51.072;17.174;2023-03-31T10:37:27;98808.00;;;15.08;98.86
9077;BME280;4574;51.072;17.174;2023-03-31T10:39:58;98806.78;;;15.04;98.72
9077;BME280;4574;51.072;17.174;2023-03-31T10:42:28;98800.41;;;15.05;98.64
9077;BME280;4574;51.072;17.174;2023-03-31T10:45:22;98797.94;;;15.10;98.10
9077;BME280;4574;51.072;17.174;2023-03-31T10:48:04;98788.72;;;15.06;97.48
9077;BME280;4574;51.072;17.174;2023-03-31T10:50:44;98776.00;;;15.08;98.53
9077;BME280;4574;51.072;17.174;2023-03-31T10:53:20;98784.19;;;15.13;98.15
9077;BME280;4574;51.072;17.174;2023-03-31T10:56:22;98775.38;;;15.13;97.63
9077;BME280;4574;51.072;17.174;2023-03-31T10:59:23;98784.41;;;15.12;97.35
9077;BME280;4574;51.072;17.174;2023-03-31T11:05:27;98763.66;;;15.20;97.42
9077;BME280;4574;51.072;17.174;2023-03-31T11:08:19;98764.09;;;15.30;97.03
9077;BME280;4574;51.072;17.174;2023-03-31T11:11:14;98754.59;;;15.41;96.52
9077;BME280;4574;51.072;17.174;2023-03-31T11:13:57;98748.56;;;15.58;97.18
9077;BME280;4574;51.072;17.174;2023-03-31T11:16:40;98749.44;;;15.77;95.86
9077;BME280;4574;51.072;17.174;2023-03-31T11:19:24;98752.38;;;16.00;94.44
9077;BME280;4574;51.072;17.174;2023-03-31T11:22:03;98732.94;;;16.17;91.76
9077;BME280;4574;51.072;17.174;2023-03-31T11:24:56;98730.59;;;16.33;90.67
9077;BME280;4574;51.072;17.174;2023-03-31T11:27:39;98719.72;;;16.53;91.41
9077;BME280;4574;51.072;17.174;2023-03-31T11:30:14;98711.69;;;16.53;90.71
9077;BME280;4574;51.072;17.174;2023-03-31T11:32:55;98711.09;;;16.69;90.02
9077;BME280;4574;51.072;17.174;2023-03-31T11:35:43;98708.16;;;16.77;89.51
9077;BME280;4574;51.072;17.174;2023-03-31T11:38:43;98696.56;;;16.83;89.48
9077;BME280;4574;51.072;17.174;2023-03-31T11:41:29;98700.88;;;16.84;89.23
9077;BME280;4574;51.072;17.174;2023-03-31T11:44:01;98688.13;;;17.04;90.32
9077;BME280;4574;51.072;17.174;2023-03-31T11:46:36;98681.72;;;17.05;87.41
9077;BME280;4574;51.072;17.174;2023-03-31T11:49:14;98673.31;;;17.01;87.58
9077;BME280;4574;51.072;17.174;2023-03-31T11:51:47;98673.53;;;17.00;88.26
9077;BME280;4574;51.072;17.174;2023-03-31T11:54:24;98687.19;;;16.92;87.07
9077;BME280;4574;51.072;17.174;2023-03-31T11:56:58;98677.41;;;16.86;87.95
9077;BME280;4574;51.072;17.174;2023-03-31T11:59:31;98671.31;;;16.79;89.11
9077;BME280;4574;51.072;17.174;2023-03-31T12:02:08;98673.19;;;16.78;89.61
9077;BME280;4574;51.072;17.174;2023-03-31T12:04:40;98665.69;;;16.69;89.07
9077;BME280;4574;51.072;17.174;2023-03-31T12:07:20;98653.81;;;16.65;90.36
9077;BME280;4574;51.072;17.174;2023-03-31T12:09:54;98647.13;;;16.56;87.57
9077;BME280;4574;51.072;17.174;2023-03-31T12:12:32;98642.81;;;16.55;86.96
9077;BME280;4574;51.072;17.174;2023-03-31T12:15:11;98652.47;;;16.56;86.67
9077;BME280;4574;51.072;17.174;2023-03-31T12:17:44;98640.00;;;16.50;86.24
9077;BME280;4574;51.072;17.174;2023-03-31T12:20:23;98649.19;;;16.36;86.50
9077;BME280;4574;51.072;17.174;2023-03-31T12:22:53;98649.44;;;16.34;86.28
9077;BME280;4574;51.072;17.174;2023-03-31T12:25:23;98643.75;;;16.24;86.17
9077;BME280;4574;51.072;17.174;2023-03-31T12:27:56;98640.16;;;16.12;86.78
9077;BME280;4574;51.072;17.174;2023-03-31T12:30:30;98635.25;;;16.09;86.75
9077;BME280;4574;51.072;17.174;2023-03-31T12:33:03;98644.09;;;16.10;86.60
9077;BME280;4574;51.072;17.174;2023-03-31T12:35:42;98628.44;;;16.13;86.61
9077;BME280;4574;51.072;17.174;2023-03-31T12:38:23;98634.81;;;16.12;87.26
9077;BME280;4574;51.072;17.174;2023-03-31T12:41:01;98620.34;;;16.02;87.69
9077;BME280;4574;51.072;17.174;2023-03-31T12:43:55;98615.66;;;15.98;88.11
9077;BME280;4574;51.072;17.174;2023-03-31T12:46:39;98627.38;;;15.97;88.84
9077;BME280;4574;51.072;17.174;2023-03-31T12:49:18;98615.94;;;15.90;90.15
9077;BME280;4574;51.072;17.174;2023-03-31T12:51:59;98603.78;;;15.94;91.15
9077;BME280;4574;51.072;17.174;2023-03-31T12:55:05;98604.47;;;15.89;91.29
9077;BME280;4574;51.072;17.174;2023-03-31T12:57:39;98593.13;;;15.94;90.91
9077;BME280;4574;51.072;17.174;2023-03-31T13:00:24;98589.47;;;15.88;93.18
9077;BME280;4574;51.072;17.174;2023-03-31T13:06:00;98589.75;;;15.80;93.08
9077;BME280;4574;51.072;17.174;2023-03-31T13:08:52;98574.84;;;15.73;95.00
9077;BME280;4574;51.072;17.174;2023-03-31T13:11:34;98566.50;;;15.63;95.42
9077;BME280;4574;51.072;17.174;2023-03-31T13:14:10;98575.06;;;15.71;95.46
9077;BME280;4574;51.072;17.174;2023-03-31T13:16:42;98573.44;;;15.70;96.06
9077;BME280;4574;51.072;17.174;2023-03-31T13:19:22;98559.63;;;15.55;96.04
9077;BME280;4574;51.072;17.174;2023-03-31T13:21:56;98578.13;;;15.50;97.68
9077;BME280;4574;51.072;17.174;2023-03-31T13:24:26;98559.28;;;15.45;98.56
9077;BME280;4574;51.072;17.174;2023-03-31T13:26:56;98563.31;;;15.23;100.00
9077;BME280;4574;51.072;17.174;2023-03-31T13:29:38;98572.00;;;15.12;100.00
9077;BME280;4574;51.072;17.174;2023-03-31T13:32:18;98554.78;;;15.08;100.00
9077;BME280;4574;51.072;17.174;2023-03-31T13:34:53;98550.03;;;14.86;100.00
9077;BME280;4574;51.072;17.174;2023-03-31T13:37:38;98548.47;;;14.72;100.00
9077;BME280;4574;51.072;17.174;2023-03-31T13:40:36;98542.94;;;14.73;100.00
9077;BME280;4574;51.072;17.174;2023-03-31T13:43:38;98535.44;;;14.58;100.00
9077;BME280;4574;51.072;17.174;2023-03-31T13:46:33;98527.63;;;14.63;100.00
9077;BME280;4574;51.072;17.174;2023-03-31T13:49:29;98504.50;;;14.57;100.00
9077;BME280;4574;51.072;17.174;2023-03-31T13:52:10;98514.81;;;14.47;100.00
9077;BME280;4574;51.072;17.174;2023-03-31T13:58:00;98507.41;;;14.55;100.00
9077;BME280;4574;51.072;17.174;2023-03-31T14:01:31;98497.63;;;14.43;100.00
9077;BME280;4574;51.072;17.174;2023-03-31T14:04:13;98496.41;;;14.39;100.00
9077;BME280;4574;51.072;17.174;2023-03-31T14:06:48;98473.72;;;14.30;100.00
9077;BME280;4574;51.072;17.174;2023-03-31T14:09:23;98473.72;;;14.30;100.00